Kalamazoo, Michigan
Current Conditions -  °F | °C
As of 6:53 AM on Wednesday 28 Jan 2015 (Local Time) from KAZO Reporting Station
Clear Clear  
Wind Chill:   Ceiling: Unl
Heat Index:   Visibility: 9mi
Dew Point:   Wind: 0mph
Humidity: 84%   Direction: NA
Pressure: 30.31"   Gusts: NA
Location:  42.29°N, 85.6°W
Report Text: KAZO 281153Z 00000KT 9SM CLR M13/M15 A3031 RMK AO2 SLP283 I1000 I6000 T11281150 11111 21133 53010
Loading
Personal Weather Stations






























Interactive Weather Map New forecast layout! Learn more

10-Day Weather Forecast

Advertisements
Track Severe Weather on mobile